Terminal Aerodrome Forecast
Issued by NWS Jackson, MS

Home | Current Version | Previous Version | Text Only | Print | Product List | Glossary On
Versions: 1 2 3 4 5 6 7 8 9 10 11 12 13 14 15 16 17
698
FTUS44 KJAN 210528
TAFGWO
TAF
KGWO 210528Z 2106/2206 16003KT P6SM SKC
     FM210900 00000KT 4SM BR FEW015
     FM211330 17003KT P6SM FEW030 FEW250
     FM211900 15005KT P6SM SCT040 SCT250=

USA.gov is the U.S. government's official web portal to all federal, state and local government web resources and services.